Time;durP1;ratioP1;P1;durP2;ratioP2;P2;SDS_P1;SDS_P2;PMS_P1;PMS_P2;Temp;Humidity;BMP_temperature;BMP_pressure;BME280_temperature;BME280_humidity;BME280_pressure;Samples;Min_cycle;Max_cycle;Signal;HPM_P1;HPM_P2
2023/11/27 00:02:17;;;;;;;9.40;1.48;;;;;;;23.51;nan;98598.06;7397966;19;20018;-62
2023/11/27 00:04:43;;;;;;;0.85;0.75;;;;;;;23.28;nan;98604.13;7398352;19;20541;-62
2023/11/27 00:07:09;;;;;;;4.13;1.52;;;;;;;23.33;nan;98600.25;7402611;19;20033;-62
2023/11/27 00:09:36;;;;;;;2.85;0.93;;;;;;;23.28;nan;98590.63;7400681;19;20031;-62
2023/11/27 00:12:02;;;;;;;1.55;1.45;;;;;;;23.48;nan;98587.84;7398119;19;20014;-59
2023/11/27 00:14:29;;;;;;;2.78;1.80;;;;;;;23.74;nan;98582.06;7397674;19;20084;-61
2023/11/27 00:16:55;;;;;;;1.27;1.17;;;;;;;23.73;nan;98577.00;7396911;19;20039;-58
2023/11/27 00:19:21;;;;;;;3.05;1.38;;;;;;;23.59;nan;98575.91;7396569;19;20007;-58
2023/11/27 00:21:47;;;;;;;1.15;1.15;;;;;;;23.54;nan;98562.75;7396695;19;20017;-58
2023/11/27 00:24:13;;;;;;;0.93;0.85;;;;;;;23.58;nan;98560.97;7395285;19;20367;-58
2023/11/27 00:26:40;;;;;;;1.00;0.68;;;;;;;23.58;nan;98563.81;7398223;19;20056;-58
2023/11/27 00:29:06;;;;;;;1.27;1.27;;;;;;;24.25;nan;98549.59;7395205;19;20015;-58
2023/11/27 00:31:32;;;;;;;3.88;1.20;;;;;;;23.86;nan;98548.88;7395367;19;20500;-58
2023/11/27 00:33:58;;;;;;;0.55;0.52;;;;;;;23.56;nan;98548.69;7396335;19;20014;-58
2023/11/27 00:36:25;;;;;;;5.20;1.38;;;;;;;23.54;nan;98546.44;7394778;19;20662;-58
2023/11/27 00:38:51;;;;;;;1.45;1.23;;;;;;;23.59;nan;98545.41;7394850;19;20018;-58
2023/11/27 00:41:18;;;;;;;3.97;1.42;;;;;;;23.91;nan;98530.72;7395501;19;20014;-58
2023/11/27 00:43:45;;;;;;;1.77;1.55;;;;;;;23.84;nan;98531.66;7394668;19;20466;-58
2023/11/27 00:46:13;;;;;;;6.57;1.23;;;;;;;23.69;nan;98525.53;7397395;19;20063;-58
2023/11/27 00:48:42;;;;;;;2.00;1.33;;;;;;;23.57;nan;98524.59;7396628;19;20042;-58
2023/11/27 00:51:13;;;;;;;3.58;0.52;;;;;;;23.54;nan;98518.00;7396211;19;20014;-58
2023/11/27 00:53:39;;;;;;;3.10;1.02;;;;;;;23.67;nan;98503.34;7395733;19;20466;-58
2023/11/27 00:56:06;;;;;;;3.90;1.60;;;;;;;23.70;nan;98496.47;7395672;19;20033;-57
2023/11/27 00:58:32;;;;;;;3.92;1.35;;;;;;;23.47;nan;98493.34;7394186;19;20015;-58
2023/11/27 01:00:59;;;;;;;0.65;0.60;;;;;;;23.61;nan;98488.69;7394443;19;20030;-59
2023/11/27 01:03:25;;;;;;;0.65;0.60;;;;;;;23.43;nan;98484.53;7394149;19;20017;-58
2023/11/27 01:05:51;;;;;;;0.55;0.55;;;;;;;23.47;nan;98479.16;7395473;19;20456;-58
2023/11/27 01:08:17;;;;;;;0.68;0.68;;;;;;;23.84;nan;98471.94;7394298;19;20321;-58
2023/11/27 01:10:44;;;;;;;0.73;0.40;;;;;;;23.93;nan;98473.28;7393640;19;20007;-59
2023/11/27 01:13:10;;;;;;;0.75;0.75;;;;;;;23.81;nan;98473.13;7394037;19;20021;-59
2023/11/27 01:15:36;;;;;;;1.65;0.60;;;;;;;24.15;nan;98474.16;7393106;19;20455;-59
2023/11/27 01:18:03;;;;;;;0.65;0.65;;;;;;;23.84;nan;98474.03;7393817;19;20010;-59
2023/11/27 01:20:29;;;;;;;0.30;0.30;;;;;;;24.00;nan;98467.41;7395412;19;20014;-58
2023/11/27 01:22:55;;;;;;;1.02;1.00;;;;;;;23.95;nan;98464.88;7392930;19;20015;-59
2023/11/27 01:25:21;;;;;;;2.30;0.98;;;;;;;23.92;nan;98455.44;7393309;19;20070;-58
2023/11/27 01:27:48;;;;;;;1.70;0.43;;;;;;;23.72;nan;98462.50;7391772;19;20367;-59
2023/11/27 01:30:15;;;;;;;1.58;0.82;;;;;;;23.71;nan;98463.13;7394481;19;20398;-59
2023/11/27 01:32:44;;;;;;;0.98;0.82;;;;;;;23.53;nan;98456.84;7392404;19;20080;-59
2023/11/27 01:35:10;;;;;;;3.88;0.45;;;;;;;23.61;nan;98453.84;7394140;19;20031;-59
2023/11/27 01:37:36;;;;;;;1.88;1.25;;;;;;;23.87;nan;98445.13;7394409;19;20003;-59
2023/11/27 01:40:03;;;;;;;21.75;1.63;;;;;;;23.56;nan;98449.97;7394293;19;20028;-59
2023/11/27 01:42:29;;;;;;;4.45;0.65;;;;;;;23.64;nan;98442.03;7392586;19;20471;-60
2023/11/27 01:44:55;;;;;;;0.25;0.25;;;;;;;23.46;nan;98437.84;7392533;19;20540;-59
2023/11/27 01:47:25;;;;;;;1.48;0.63;;;;;;;23.51;nan;98439.66;7397381;19;20025;-59
2023/11/27 01:49:51;;;;;;;0.65;0.38;;;;;;;23.75;nan;98432.13;7392736;19;20044;-59
2023/11/27 01:52:18;;;;;;;2.70;0.40;;;;;;;23.47;nan;98436.50;7393149;19;20011;-59
2023/11/27 01:54:45;;;;;;;0.10;0.10;;;;;;;23.49;nan;98436.66;7392437;19;20006;-59
2023/11/27 01:57:16;;;;;;;1.05;0.98;;;;;;;23.47;nan;98436.50;7395959;19;20015;-59
2023/11/27 01:59:46;;;;;;;0.40;0.40;;;;;;;23.21;nan;98428.84;7394079;19;20018;-59
2023/11/27 02:02:14;;;;;;;0.88;0.30;;;;;;;23.14;nan;98415.53;7392180;19;20014;-59
2023/11/27 02:04:40;;;;;;;0.30;0.30;;;;;;;23.28;nan;98422.28;7391250;19;20011;-59
2023/11/27 02:07:07;;;;;;;2.95;1.13;;;;;;;23.33;nan;98407.81;7397559;19;20017;-59
2023/11/27 02:09:33;;;;;;;0.50;0.28;;;;;;;23.54;nan;98407.16;7395327;19;20011;-59
2023/11/27 02:11:59;;;;;;;0.10;0.10;;;;;;;23.55;nan;98400.16;7393137;19;20018;-59
2023/11/27 02:14:26;;;;;;;0.40;0.32;;;;;;;23.78;nan;98400.41;7392237;19;20038;-59
2023/11/27 02:16:53;;;;;;;3.55;1.13;;;;;;;23.70;nan;98399.06;7394303;19;20011;-59
2023/11/27 02:19:19;;;;;;;0.85;0.85;;;;;;;23.49;nan;98399.72;7391384;19;20031;-60
2023/11/27 02:21:45;;;;;;;5.68;0.75;;;;;;;23.45;nan;98395.84;7391921;19;20011;-61
2023/11/27 02:24:11;;;;;;;0.20;0.20;;;;;;;23.56;nan;98390.28;7392170;19;20026;-60
2023/11/27 02:26:38;;;;;;;0.32;0.20;;;;;;;23.71;nan;98394.88;7394503;19;20006;-60
2023/11/27 02:29:05;;;;;;;7.00;1.05;;;;;;;23.65;nan;98391.63;7390836;19;20459;-60
2023/11/27 02:31:31;;;;;;;0.30;0.30;;;;;;;23.64;nan;98385.19;7390959;19;20011;-60
2023/11/27 02:33:58;;;;;;;0.55;0.55;;;;;;;23.84;nan;98380.94;7392989;19;20015;-60
2023/11/27 02:36:26;;;;;;;0.10;0.10;;;;;;;23.94;nan;98378.81;7392277;19;20087;-60
2023/11/27 02:38:52;;;;;;;0.63;0.30;;;;;;;23.75;nan;98373.19;7390872;19;20073;-60
2023/11/27 02:41:19;;;;;;;0.20;0.20;;;;;;;23.87;nan;98356.97;7397068;19;20099;-61
2023/11/27 02:43:45;;;;;;;0.10;0.10;;;;;;;23.83;nan;98362.38;7400994;19;20168;-60
2023/11/27 02:46:13;;;;;;;0.32;0.32;;;;;;;23.89;nan;98359.22;7400674;19;20007;-60
2023/11/27 02:48:39;;;;;;;0.20;0.20;;;;;;;23.75;nan;98361.81;7400667;19;20022;-61
2023/11/27 02:51:06;;;;;;;0.40;0.30;;;;;;;23.49;nan;98348.56;7398866;19;20025;-60
2023/11/27 02:53:32;;;;;;;1.67;0.63;;;;;;;24.12;nan;98359.47;7398299;19;20015;-60
2023/11/27 02:55:59;;;;;;;0.10;0.10;;;;;;;24.26;nan;98357.59;7398326;19;20025;-60
2023/11/27 02:58:25;;;;;;;0.73;0.73;;;;;;;24.10;nan;98354.34;7398377;19;20014;-61
2023/11/27 03:00:51;;;;;;;0.20;0.20;;;;;;;24.23;nan;98358.06;7400358;19;20014;-60
2023/11/27 03:03:18;;;;;;;0.20;0.20;;;;;;;24.24;nan;98354.59;7400029;19;20027;-61
2023/11/27 03:05:44;;;;;;;0.40;0.40;;;;;;;23.85;nan;98345.47;7398775;19;20020;-61
2023/11/27 03:08:10;;;;;;;0.10;0.10;;;;;;;23.88;nan;98337.81;7401428;19;20028;-60
2023/11/27 03:10:36;;;;;;;0.47;0.22;;;;;;;23.84;nan;98320.47;7399021;19;20025;-61
2023/11/27 03:13:03;;;;;;;0.57;0.57;;;;;;;23.66;nan;98322.03;7399717;19;20011;-60
2023/11/27 03:15:29;;;;;;;0.63;0.57;;;;;;;23.45;nan;98321.94;7399568;19;20019;-61
2023/11/27 03:17:55;;;;;;;0.20;0.20;;;;;;;23.45;nan;98310.59;7398829;19;20044;-60
2023/11/27 03:20:21;;;;;;;0.30;0.30;;;;;;;23.14;nan;98316.13;7403985;19;20089;-60
2023/11/27 03:22:47;;;;;;;0.30;0.30;;;;;;;23.39;nan;98316.56;7397324;19;20070;-61
2023/11/27 03:25:14;;;;;;;3.95;0.75;;;;;;;23.56;nan;98302.19;7397523;19;20018;-63
2023/11/27 03:27:40;;;;;;;0.10;0.00;;;;;;;23.86;nan;98298.63;7396715;19;20015;-63
2023/11/27 03:30:08;;;;;;;0.40;0.32;;;;;;;23.85;nan;98299.97;7396454;19;20025;-61
2023/11/27 03:32:34;;;;;;;0.15;0.15;;;;;;;23.73;nan;98290.59;7397893;19;20018;-61
2023/11/27 03:35:01;;;;;;;0.20;0.20;;;;;;;23.98;nan;98290.94;7395816;19;20010;-60
2023/11/27 03:37:29;;;;;;;0.10;0.10;;;;;;;24.80;nan;98289.38;7400210;19;20007;-61
2023/11/27 03:39:55;;;;;;;0.20;0.20;;;;;;;24.04;nan;98285.69;7396847;19;20015;-61
2023/11/27 03:42:21;;;;;;;0.40;0.30;;;;;;;23.48;nan;98287.38;7397982;19;20006;-60
2023/11/27 03:44:47;;;;;;;0.10;0.10;;;;;;;25.02;nan;98281.53;7398261;19;20018;-61
2023/11/27 03:47:13;;;;;;;0.50;0.38;;;;;;;25.23;nan;98279.38;7400638;19;20025;-61
2023/11/27 03:49:39;;;;;;;0.10;0.10;;;;;;;25.22;nan;98277.91;7400714;19;20025;-61
2023/11/27 03:52:07;;;;;;;0.25;0.25;;;;;;;25.08;nan;98262.75;7396227;19;20015;-61
2023/11/27 03:54:33;;;;;;;0.63;0.47;;;;;;;25.14;nan;98271.69;7395334;19;20014;-60
2023/11/27 03:56:59;;;;;;;0.28;0.28;;;;;;;22.77;nan;98264.47;7395901;19;20455;-61
2023/11/27 03:59:26;;;;;;;0.70;0.43;;;;;;;22.00;nan;98257.94;7394809;19;20034;-62
2023/11/27 04:01:52;;;;;;;0.10;0.10;;;;;;;23.62;nan;98245.75;7400242;19;20376;-61
2023/11/27 04:04:18;;;;;;;0.20;0.20;;;;;;;23.75;nan;98248.09;7396727;19;20022;-62
2023/11/27 04:06:45;;;;;;;1.20;0.40;;;;;;;23.91;nan;98242.75;7397392;19;20015;-62
2023/11/27 04:09:13;;;;;;;0.20;0.20;;;;;;;24.03;nan;98243.59;7398662;19;20373;-62
2023/11/27 04:11:40;;;;;;;0.20;0.20;;;;;;;23.96;nan;98233.91;7401901;19;20015;-63
2023/11/27 04:14:06;;;;;;;0.10;0.10;;;;;;;24.06;nan;98231.78;7396223;19;20382;-64
2023/11/27 04:16:32;;;;;;;0.10;0.10;;;;;;;24.21;nan;98229.91;7394325;19;20014;-62
2023/11/27 04:18:59;;;;;;;0.10;0.10;;;;;;;24.06;nan;98228.94;7395760;19;20024;-62
2023/11/27 04:21:25;;;;;;;0.20;0.20;;;;;;;22.87;nan;98224.72;7394929;19;20495;-61
2023/11/27 04:23:51;;;;;;;0.30;0.30;;;;;;;22.98;nan;98224.06;7400218;19;20011;-61
2023/11/27 04:26:21;;;;;;;0.10;0.10;;;;;;;23.27;nan;98219.09;7396419;19;20017;-61
2023/11/27 04:28:49;;;;;;;0.20;0.20;;;;;;;22.77;nan;98219.03;7396961;19;20469;-61
2023/11/27 04:31:15;;;;;;;3.50;0.90;;;;;;;22.85;nan;98216.06;7396506;19;20360;-61
2023/11/27 04:33:41;;;;;;;0.28;0.22;;;;;;;23.56;nan;98208.41;7397312;19;20011;-60
2023/11/27 04:36:08;;;;;;;0.10;0.10;;;;;;;23.68;nan;98214.91;7397872;19;20451;-60
2023/11/27 04:38:34;;;;;;;0.50;0.17;;;;;;;23.12;nan;98210.91;7396980;19;20034;-60
2023/11/27 04:41:02;;;;;;;1.20;0.10;;;;;;;24.27;nan;98210.38;7396327;19;20010;-59
2023/11/27 04:43:28;;;;;;;0.20;0.20;;;;;;;23.85;nan;98211.81;7395723;19;20015;-59
2023/11/27 04:45:55;;;;;;;0.10;0.10;;;;;;;24.83;nan;98202.72;7395207;19;20022;-61
2023/11/27 04:48:21;;;;;;;0.55;0.43;;;;;;;25.12;nan;98199.59;7396427;19;20014;-60
2023/11/27 04:50:48;;;;;;;0.15;0.15;;;;;;;25.31;nan;98210.78;7396087;19;20040;-60
2023/11/27 04:53:14;;;;;;;0.10;0.10;;;;;;;25.37;nan;98203.34;7396291;19;20082;-59
2023/11/27 04:55:40;;;;;;;0.25;0.25;;;;;;;25.32;nan;98207.28;7394849;19;20017;-60
2023/11/27 04:58:07;;;;;;;0.20;0.20;;;;;;;25.03;nan;98198.34;7394162;19;20082;-59
2023/11/27 05:00:33;;;;;;;6.40;0.50;;;;;;;24.91;nan;98194.69;7393442;19;20011;-60
2023/11/27 05:03:00;;;;;;;0.15;0.15;;;;;;;25.10;nan;98185.94;7391332;19;20456;-61
2023/11/27 05:05:26;;;;;;;1.65;0.60;;;;;;;25.27;nan;98187.72;7390857;19;20471;-60
2023/11/27 05:07:52;;;;;;;0.10;0.10;;;;;;;24.55;nan;98189.47;7395277;19;20015;-59
2023/11/27 05:10:19;;;;;;;0.10;0.10;;;;;;;25.30;nan;98190.06;7395283;19;20011;-60
2023/11/27 05:12:45;;;;;;;0.10;0.10;;;;;;;25.63;nan;98183.53;7393379;19;20021;-60
2023/11/27 05:15:11;;;;;;;0.10;0.10;;;;;;;25.48;nan;98176.97;7395110;19;20019;-59
2023/11/27 05:17:37;;;;;;;0.20;0.20;;;;;;;25.55;nan;98184.53;7395506;19;20011;-60
2023/11/27 05:20:04;;;;;;;0.10;0.08;;;;;;;25.94;nan;98178.31;7395350;19;20014;-59
2023/11/27 05:22:30;;;;;;;0.20;0.20;;;;;;;25.67;nan;98178.06;7395401;19;20054;-60
2023/11/27 05:24:57;;;;;;;0.20;0.20;;;;;;;25.37;nan;98180.53;7395478;19;20044;-60
2023/11/27 05:27:24;;;;;;;1.95;0.20;;;;;;;24.22;nan;98168.78;7395472;19;20021;-60
2023/11/27 05:29:50;;;;;;;0.65;0.65;;;;;;;24.72;nan;98169.25;7395116;19;20018;-59
2023/11/27 05:32:16;;;;;;;1.63;0.77;;;;;;;24.71;nan;98168.50;7393873;19;20022;-60
2023/11/27 05:34:43;;;;;;;0.50;0.30;;;;;;;24.28;nan;98166.34;7398830;19;20211;-60
2023/11/27 05:37:09;;;;;;;0.10;0.10;;;;;;;24.40;nan;98156.50;7393206;19;20015;-59
2023/11/27 05:39:35;;;;;;;0.10;0.10;;;;;;;24.98;nan;98161.66;7394015;19;20018;-60
2023/11/27 05:42:02;;;;;;;0.40;0.40;;;;;;;25.38;nan;98147.81;7392774;19;20043;-60
2023/11/27 05:44:29;;;;;;;0.25;0.25;;;;;;;25.35;nan;98154.00;7394583;19;20015;-60
2023/11/27 05:46:56;;;;;;;0.70;0.22;;;;;;;25.43;nan;98152.44;7399004;19;20375;-60
2023/11/27 05:49:22;;;;;;;0.10;0.10;;;;;;;25.14;nan;98148.44;7394306;19;20018;-59
2023/11/27 05:51:48;;;;;;;0.93;0.38;;;;;;;25.01;nan;98144.09;7394467;19;20013;-59
2023/11/27 05:54:14;;;;;;;0.20;0.20;;;;;;;24.82;nan;98144.28;7392074;19;20062;-59
2023/11/27 05:56:40;;;;;;;0.22;0.22;;;;;;;24.70;nan;98149.19;7393568;19;20022;-59
2023/11/27 05:59:07;;;;;;;0.15;0.13;;;;;;;24.05;nan;98139.28;7392718;19;20044;-59
2023/11/27 06:01:33;;;;;;;0.40;0.32;;;;;;;24.05;nan;98141.38;7393940;19;20031;-59
2023/11/27 06:03:59;;;;;;;0.20;0.20;;;;;;;24.62;nan;98142.97;7393927;19;20450;-59
2023/11/27 06:06:26;;;;;;;3.92;0.38;;;;;;;24.27;nan;98134.31;7396140;19;20010;-59
2023/11/27 06:08:52;;;;;;;0.10;0.10;;;;;;;23.98;nan;98137.34;7394011;19;20034;-59
2023/11/27 06:11:18;;;;;;;1.00;0.47;;;;;;;23.94;nan;98134.25;7393737;19;20015;-60
2023/11/27 06:13:44;;;;;;;0.20;0.20;;;;;;;24.36;nan;98138.44;7391691;19;20376;-59
2023/11/27 06:16:10;;;;;;;0.20;0.20;;;;;;;22.41;nan;98129.16;7392572;19;20035;-59
2023/11/27 06:18:36;;;;;;;0.40;0.25;;;;;;;22.97;nan;98131.75;7395002;19;20018;-59
2023/11/27 06:21:03;;;;;;;0.10;0.10;;;;;;;22.91;nan;98128.47;7393559;19;20010;-60
2023/11/27 06:23:30;;;;;;;0.90;0.47;;;;;;;22.61;nan;98130.63;7394182;19;20517;-60
2023/11/27 06:25:56;;;;;;;0.47;0.40;;;;;;;23.00;nan;98122.03;7392695;19;20025;-60
2023/11/27 06:28:23;;;;;;;0.10;0.10;;;;;;;23.03;nan;98129.31;7394141;19;20471;-61
2023/11/27 06:30:52;;;;;;;0.40;0.40;;;;;;;22.38;nan;98123.94;7394936;19;20011;-60
2023/11/27 06:33:18;;;;;;;0.65;0.65;;;;;;;23.57;nan;98129.53;7393509;19;20006;-60
2023/11/27 06:35:44;;;;;;;0.35;0.35;;;;;;;23.47;nan;98123.94;7389877;19;20432;-60
2023/11/27 06:38:11;;;;;;;0.60;0.40;;;;;;;24.42;nan;98124.59;7391351;19;20488;-60
2023/11/27 06:40:37;;;;;;;0.20;0.20;;;;;;;24.49;nan;98115.09;7396094;19;20018;-60
2023/11/27 06:43:03;;;;;;;2.42;1.13;;;;;;;23.13;nan;98116.56;7394740;19;20014;-60
2023/11/27 06:45:29;;;;;;;2.50;0.80;;;;;;;22.82;nan;98121.50;7390355;19;20019;-59
2023/11/27 06:47:55;;;;;;;0.10;0.10;;;;;;;22.69;nan;98118.38;7389403;19;20017;-60
2023/11/27 06:50:21;;;;;;;0.17;0.17;;;;;;;22.44;nan;98116.59;7388766;19;20791;-61
2023/11/27 06:52:47;;;;;;;0.57;0.30;;;;;;;23.14;nan;98109.56;7386896;19;20042;-60
2023/11/27 06:55:14;;;;;;;0.93;0.93;;;;;;;24.48;nan;98110.75;7389579;19;20011;-60
2023/11/27 06:57:41;;;;;;;0.20;0.20;;;;;;;25.12;nan;98109.16;7384648;19;20048;-60
2023/11/27 07:00:10;;;;;;;2.50;0.55;;;;;;;25.17;nan;98110.13;7386015;19;20459;-60
2023/11/27 07:02:37;;;;;;;1.77;0.80;;;;;;;25.28;nan;98110.16;7382977;19;20014;-59
2023/11/27 07:05:05;;;;;;;3.92;0.68;;;;;;;25.47;nan;98109.16;7386109;19;20015;-59
2023/11/27 07:07:31;;;;;;;0.32;0.32;;;;;;;25.30;nan;98113.13;7389161;19;20017;-60
2023/11/27 07:09:58;;;;;;;0.65;0.38;;;;;;;24.52;nan;98105.31;7390856;19;20119;-60
2023/11/27 07:12:24;;;;;;;0.50;0.50;;;;;;;23.63;nan;98113.66;7391674;19;20018;-60
2023/11/27 07:14:50;;;;;;;0.32;0.22;;;;;;;23.21;nan;98110.72;7393921;19;20038;-60
2023/11/27 07:17:16;;;;;;;2.97;0.68;;;;;;;22.87;nan;98102.66;7397266;19;20022;-60
2023/11/27 07:19:42;;;;;;;1.02;0.90;;;;;;;22.49;nan;98098.53;7394110;19;20013;-60
2023/11/27 07:22:09;;;;;;;0.20;0.20;;;;;;;23.04;nan;98091.06;7390930;19;20074;-60
2023/11/27 07:24:35;;;;;;;0.43;0.43;;;;;;;24.16;nan;98097.28;7391315;19;20022;-60
2023/11/27 07:27:04;;;;;;;2.92;0.43;;;;;;;24.08;nan;98103.91;7396450;19;20018;-60
2023/11/27 07:29:31;;;;;;;1.65;0.57;;;;;;;23.35;nan;98098.25;7398768;19;20017;-60
2023/11/27 07:31:57;;;;;;;0.10;0.10;;;;;;;23.78;nan;98096.19;7401237;19;20014;-60
2023/11/27 07:34:26;;;;;;;0.68;0.55;;;;;;;23.34;nan;98096.78;7399121;19;20014;-60
2023/11/27 07:36:52;;;;;;;0.82;0.82;;;;;;;23.19;nan;98110.59;7395515;19;20078;-60
2023/11/27 07:39:19;;;;;;;1.05;0.75;;;;;;;22.38;nan;98107.66;7398705;19;20014;-60
2023/11/27 07:41:45;;;;;;;0.73;0.40;;;;;;;21.98;nan;98104.72;7403403;19;20062;-60
2023/11/27 07:44:15;;;;;;;1.10;0.95;;;;;;;22.68;nan;98102.69;7401895;19;20015;-60
2023/11/27 07:46:41;;;;;;;0.73;0.40;;;;;;;23.53;nan;98101.59;7399902;19;20010;-60
2023/11/27 07:49:10;;;;;;;0.30;0.30;;;;;;;24.02;nan;98108.41;7397932;19;20481;-61
2023/11/27 07:51:36;;;;;;;0.77;0.77;;;;;;;24.94;nan;98116.56;7398116;19;20081;-60
2023/11/27 07:54:03;;;;;;;0.50;0.50;;;;;;;23.91;nan;98118.38;7397977;19;20074;-60
2023/11/27 07:56:30;;;;;;;0.50;0.30;;;;;;;23.27;nan;98119.66;7398668;19;20021;-61
2023/11/27 07:58:57;;;;;;;3.60;0.82;;;;;;;23.01;nan;98132.03;7397384;19;20058;-60
2023/11/27 08:01:24;;;;;;;0.85;0.40;;;;;;;23.05;nan;98120.94;7397677;19;20018;-61
2023/11/27 08:03:51;;;;;;;0.77;0.77;;;;;;;23.22;nan;98120.72;7396570;19;20023;-61
2023/11/27 08:06:17;;;;;;;0.40;0.30;;;;;;;23.56;nan;98123.13;7396786;19;20011;-60
2023/11/27 08:08:43;;;;;;;0.85;0.40;;;;;;;23.80;nan;98119.06;7399643;19;20003;-60
2023/11/27 08:11:09;;;;;;;0.52;0.52;;;;;;;24.47;nan;98126.34;7398176;19;20014;-61
2023/11/27 08:13:36;;;;;;;4.57;0.32;;;;;;;23.57;nan;98127.44;7397361;19;20014;-61
2023/11/27 08:16:04;;;;;;;2.55;0.40;;;;;;;23.74;nan;98123.59;7397854;19;20666;-60
2023/11/27 08:18:30;;;;;;;2.15;0.25;;;;;;;24.12;nan;98125.44;7397318;19;20014;-60
2023/11/27 08:20:56;;;;;;;0.22;0.22;;;;;;;23.90;nan;98128.28;7396958;19;20027;-61
2023/11/27 08:23:24;;;;;;;1.58;0.85;;;;;;;23.83;nan;98126.38;7397580;19;20492;-61
2023/11/27 08:25:50;;;;;;;0.77;0.38;;;;;;;23.91;nan;98118.38;7396806;19;20463;-62
2023/11/27 08:28:16;;;;;;;0.55;0.30;;;;;;;23.82;nan;98122.03;7397769;19;20019;-62
2023/11/27 08:30:42;;;;;;;0.50;0.40;;;;;;;24.30;nan;98135.19;7396896;19;20025;-61
2023/11/27 08:33:08;;;;;;;0.85;0.75;;;;;;;24.70;nan;98127.16;7395241;19;20014;-61
2023/11/27 08:35:34;;;;;;;0.40;0.38;;;;;;;24.78;nan;98132.63;7394554;19;20467;-61
2023/11/27 08:38:01;;;;;;;0.10;0.10;;;;;;;25.39;nan;98126.50;7398453;19;20014;-60
2023/11/27 08:40:27;;;;;;;0.40;0.40;;;;;;;25.07;nan;98135.16;7396075;19;20074;-60
2023/11/27 08:42:53;;;;;;;0.13;0.13;;;;;;;25.05;nan;98132.94;7394765;19;20458;-60
2023/11/27 08:45:25;;;;;;;1.65;1.08;;;;;;;24.96;nan;98142.34;7397220;19;20035;-60
2023/11/27 08:47:51;;;;;;;0.45;0.45;;;;;;;24.08;nan;98143.72;7400832;19;20452;-60
2023/11/27 08:50:24;;;;;;;0.35;0.35;;;;;;;23.39;nan;98148.91;7395900;19;20052;-60
2023/11/27 08:52:51;;;;;;;0.28;0.28;;;;;;;23.31;nan;98142.66;7395557;19;20007;-60
2023/11/27 08:55:27;;;;;;;0.30;0.30;;;;;;;23.65;nan;98147.88;7395114;19;20015;-60
2023/11/27 08:57:55;;;;;;;0.10;0.10;;;;;;;24.13;nan;98146.88;7398689;19;20014;-60
2023/11/27 09:00:21;;;;;;;7.00;0.45;;;;;;;23.69;nan;98142.47;7394992;19;20010;-61
2023/11/27 09:02:48;;;;;;;0.25;0.25;;;;;;;23.75;nan;98148.59;7396014;19;20006;-60
2023/11/27 09:05:14;;;;;;;0.30;0.30;;;;;;;23.76;nan;98150.06;7395965;19;20031;-61
2023/11/27 09:07:40;;;;;;;0.20;0.20;;;;;;;23.74;nan;98146.34;7398662;19;20029;-60
2023/11/27 09:10:07;;;;;;;5.90;0.75;;;;;;;24.43;nan;98140.31;7400580;19;20007;-61
2023/11/27 09:12:34;;;;;;;0.10;0.10;;;;;;;23.95;nan;98141.41;7394629;19;20348;-61
2023/11/27 09:15:01;;;;;;;2.35;0.30;;;;;;;23.33;nan;98142.81;7394814;19;20348;-60
2023/11/27 09:17:27;;;;;;;1.48;0.85;;;;;;;23.29;nan;98151.78;7396693;19;20010;-61
2023/11/27 09:19:53;;;;;;;0.43;0.43;;;;;;;23.45;nan;98146.53;7395736;19;20015;-61
2023/11/27 09:22:22;;;;;;;0.30;0.30;;;;;;;23.14;nan;98148.56;7395643;19;20015;-61
2023/11/27 09:24:48;;;;;;;1.33;0.30;;;;;;;23.08;nan;98153.81;7393520;19;20018;-60
2023/11/27 09:27:15;;;;;;;0.20;0.20;;;;;;;23.04;nan;98153.53;7396957;19;20062;-60
2023/11/27 09:29:41;;;;;;;2.55;0.85;;;;;;;23.02;nan;98153.41;7394250;19;20011;-60
2023/11/27 09:32:07;;;;;;;0.20;0.20;;;;;;;23.40;nan;98155.34;7394824;19;20463;-61
2023/11/27 09:34:33;;;;;;;0.73;0.40;;;;;;;23.62;nan;98154.81;7394743;19;20018;-60
2023/11/27 09:36:59;;;;;;;0.10;0.10;;;;;;;23.67;nan;98159.41;7394791;19;20383;-61
2023/11/27 09:39:26;;;;;;;0.98;0.93;;;;;;;23.75;nan;98162.06;7394143;19;20006;-61
2023/11/27 09:41:52;;;;;;;0.43;0.43;;;;;;;23.83;nan;98168.28;7394623;19;20015;-61
2023/11/27 09:44:18;;;;;;;0.90;0.32;;;;;;;23.36;nan;98164.34;7393484;19;20087;-61
2023/11/27 09:46:49;;;;;;;0.20;0.20;;;;;;;22.92;nan;98167.63;7396573;19;20015;-60
2023/11/27 09:49:23;;;;;;;0.30;0.30;;;;;;;22.87;nan;98165.09;7393091;19;20007;-60
2023/11/27 09:52:03;;;;;;;0.30;0.30;;;;;;;22.58;nan;98177.22;7393881;19;20110;-60
2023/11/27 09:54:33;;;;;;;0.50;0.50;;;;;;;22.62;nan;98188.13;7393877;19;20010;-60
2023/11/27 09:56:59;;;;;;;1.55;0.60;;;;;;;22.26;nan;98174.81;7394148;19;20345;-60
2023/11/27 09:59:32;;;;;;;0.32;0.32;;;;;;;22.08;nan;98199.00;7393691;19;20014;-59
2023/11/27 10:01:58;;;;;;;0.30;0.30;;;;;;;21.84;nan;98188.69;7393865;19;20444;-60
2023/11/27 10:04:25;;;;;;;0.20;0.20;;;;;;;21.07;nan;98202.53;7393891;19;20011;-60
2023/11/27 10:06:52;;;;;;;8.23;1.13;;;;;;;21.25;nan;98208.88;7395155;19;20086;-61
2023/11/27 10:09:20;;;;;;;0.73;0.40;;;;;;;21.05;nan;98202.38;7397055;19;20010;-60
2023/11/27 10:11:50;;;;;;;0.80;0.20;;;;;;;20.73;nan;98208.25;7393466;19;20014;-61
2023/11/27 10:14:18;;;;;;;0.20;0.20;;;;;;;20.80;nan;98215.91;7393180;19;20070;-62
2023/11/27 10:16:46;;;;;;;0.30;0.30;;;;;;;20.51;nan;98226.25;7394961;19;20022;-62
2023/11/27 10:19:19;;;;;;;0.10;0.10;;;;;;;20.54;nan;98225.09;7392245;19;20018;-62
2023/11/27 10:21:46;;;;;;;0.32;0.32;;;;;;;21.03;nan;98229.75;7393565;19;20010;-62
2023/11/27 10:24:13;;;;;;;0.17;0.17;;;;;;;21.64;nan;98223.94;7391657;19;20376;-62
2023/11/27 10:26:42;;;;;;;0.28;0.28;;;;;;;21.45;nan;98223.88;7394007;19;20394;-62
2023/11/27 10:29:09;;;;;;;0.17;0.17;;;;;;;22.16;nan;98232.88;7392557;19;20070;-63
2023/11/27 10:31:37;;;;;;;1.95;0.50;;;;;;;22.16;nan;98227.22;7392516;19;20022;-65
2023/11/27 10:34:05;;;;;;;2.10;0.30;;;;;;;22.43;nan;98237.13;7393191;19;20356;-63
2023/11/27 10:36:33;;;;;;;0.20;0.20;;;;;;;21.80;nan;98236.53;7392531;19;20038;-64
2023/11/27 10:39:00;;;;;;;0.20;0.20;;;;;;;21.53;nan;98236.56;7393128;19;20021;-64
2023/11/27 10:41:28;;;;;;;0.22;0.20;;;;;;;21.75;nan;98235.47;7392289;19;20042;-64
2023/11/27 10:43:54;;;;;;;0.95;0.75;;;;;;;21.68;nan;98242.00;7392356;19;20010;-65
2023/11/27 10:46:20;;;;;;;0.50;0.50;;;;;;;22.84;nan;98238.00;7394857;19;20010;-64
2023/11/27 10:48:48;;;;;;;0.30;0.30;;;;;;;22.98;nan;98232.59;7392491;19;20069;-63
2023/11/27 10:51:16;;;;;;;0.20;0.20;;;;;;;22.65;nan;98248.63;7392410;19;20015;-64
2023/11/27 10:53:46;;;;;;;0.30;0.30;;;;;;;22.98;nan;98246.78;7392995;19;20006;-63
2023/11/27 10:56:14;;;;;;;0.32;0.32;;;;;;;23.08;nan;98245.47;7391670;19;20343;-64
2023/11/27 10:58:41;;;;;;;0.30;0.30;;;;;;;23.18;nan;98242.56;7392263;19;20030;-63
2023/11/27 11:01:09;;;;;;;0.32;0.32;;;;;;;23.32;nan;98241.47;7393309;19;20011;-63
2023/11/27 11:03:42;;;;;;;0.40;0.40;;;;;;;23.27;nan;98239.72;7399378;19;20018;-63
2023/11/27 11:06:13;;;;;;;0.20;0.15;;;;;;;23.13;nan;98249.34;7398261;19;20356;-62
2023/11/27 11:08:40;;;;;;;0.32;0.32;;;;;;;22.63;nan;98245.66;7398544;19;20022;-61
2023/11/27 11:11:07;;;;;;;0.40;0.25;;;;;;;22.28;nan;98245.91;7398088;19;20011;-61
2023/11/27 11:13:33;;;;;;;0.50;0.47;;;;;;;22.48;nan;98241.72;7398046;19;20015;-61
2023/11/27 11:16:29;;;;;;;9.88;1.50;;;;;;;22.45;nan;98247.84;7399330;19;20014;-61
2023/11/27 11:19:03;;;;;;;0.20;0.20;;;;;;;22.15;nan;98242.75;7400203;19;20011;-61
2023/11/27 11:21:55;;;;;;;0.10;0.10;;;;;;;22.46;nan;98250.09;7398574;19;20010;-58
2023/11/27 11:24:25;;;;;;;;;;;;;;;22.16;nan;98250.66;7397997;19;20048;-58
2023/11/27 11:27:22;;;;;;;0.65;0.55;;;;;;;22.06;nan;98249.16;7399442;19;20320;-58
2023/11/27 11:29:51;;;;;;;0.10;0.10;;;;;;;22.43;nan;98265.47;7400234;19;20403;-58
2023/11/27 11:32:17;;;;;;;3.83;0.80;;;;;;;22.72;nan;98259.09;7400755;19;20023;-58
2023/11/27 11:34:51;;;;;;;0.30;0.30;;;;;;;22.55;nan;98263.53;7399661;19;20011;-58
2023/11/27 11:37:20;;;;;;;0.30;0.30;;;;;;;22.62;nan;98261.94;7402090;19;20014;-58
2023/11/27 11:39:52;;;;;;;8.07;0.50;;;;;;;22.27;nan;98261.44;7399842;19;20082;-62
2023/11/27 11:42:25;;;;;;;1.05;0.60;;;;;;;22.15;nan;98265.44;7399240;19;20010;-61
2023/11/27 11:45:19;;;;;;;0.13;0.13;;;;;;;22.24;nan;98261.88;7397406;19;20023;-61
2023/11/27 11:47:51;;;;;;;0.17;0.17;;;;;;;21.84;nan;98265.19;7399282;19;20625;-61
2023/11/27 11:50:32;;;;;;;0.80;0.60;;;;;;;21.52;nan;98274.75;7398162;19;20035;-61
2023/11/27 11:53:04;;;;;;;1.30;0.43;;;;;;;21.73;nan;98272.16;7397466;19;20022;-61